Aviation Digital Data Service (ADDS)

Output produced by METARs form (1645 UTC 20 January 2019)
found at http://www.aviationweather.gov/metar/data/
 
DRRN 201600Z 01007KT 340V050 8000 NSC 31/M13 Q1013 NOSIG
TAF DRRN 201100Z 2012/2118 03010KT 8000 NSC 
     TEMPO 2017/2020 4000 DU
       
DRZA 201600Z 28008KT CAVOK 30/M05 Q1014
TAF DRZA 201100Z 2012/2112 33010KT 8000 NSC
       
DRRM 201600Z 36004KT CAVOK 33/00 Q1012
DRRT 201600Z 32004KT CAVOK 30/M07 Q1013
DRZR 201500Z 24002KT CAVOK 35/M04 Q1013
TAF DRZR 201100Z 2012/2112 02006KT 8000 NSC